Time;durP1;ratioP1;P1;durP2;ratioP2;P2;SDS_P1;SDS_P2;PMS_P1;PMS_P2;Temp;Humidity;BMP_temperature;BMP_pressure;BME280_temperature;BME280_humidity;BME280_pressure;Samples;Min_cycle;Max_cycle;Signal;HPM_P1;HPM_P2
2022/03/26 00:03:44;;;;;;;36.92;15.43;;;;;;;;;;8411458;28;20044;-78
2022/03/26 00:07:47;;;;;;;37.42;14.75;;;;;;;;;;8409459;28;20127;-77
2022/03/26 00:11:51;;;;;;;30.42;14.13;;;;;;;;;;8421133;28;20048;-79
2022/03/26 00:15:54;;;;;;;54.55;17.73;;;;;;;;;;8410623;28;20048;-79
2022/03/26 00:19:56;;;;;;;44.35;15.40;;;;;;;;;;8414593;28;20048;-79
2022/03/26 00:23:59;;;;;;;34.33;14.60;;;;;;;;;;8428540;28;20036;-79
2022/03/26 00:28:03;;;;;;;35.83;14.23;;;;;;;;;;8416119;28;20052;-79
2022/03/26 00:32:06;;;;;;;32.38;13.15;;;;;;;;;;8417691;28;20052;-79
2022/03/26 00:36:09;;;;;;;38.00;14.32;;;;;;;;;;8403619;28;20143;-80
2022/03/26 00:40:13;;;;;;;42.83;16.35;;;;;;;;;;8417675;28;20404;-79
2022/03/26 00:44:17;;;;;;;34.40;14.30;;;;;;;;;;8419787;28;20040;-79
2022/03/26 00:48:20;;;;;;;53.28;18.83;;;;;;;;;;8407933;28;20044;-80
2022/03/26 00:52:22;;;;;;;36.35;14.60;;;;;;;;;;8411891;28;20052;-79
2022/03/26 00:56:25;;;;;;;32.72;13.57;;;;;;;;;;8404433;28;20048;-79
2022/03/26 01:00:29;;;;;;;38.55;16.08;;;;;;;;;;8413926;28;20048;-78
2022/03/26 01:04:31;;;;;;;33.20;14.98;;;;;;;;;;8420655;28;20048;-78
2022/03/26 01:08:34;;;;;;;35.78;15.88;;;;;;;;;;8418218;28;20043;-78
2022/03/26 01:12:36;;;;;;;35.92;15.77;;;;;;;;;;8410862;28;20055;-78
2022/03/26 01:16:40;;;;;;;34.65;15.25;;;;;;;;;;8419972;28;20049;-78
2022/03/26 01:20:43;;;;;;;35.10;15.00;;;;;;;;;;8407450;28;20136;-78
2022/03/26 01:24:46;;;;;;;36.17;14.55;;;;;;;;;;8399568;28;20382;-79
2022/03/26 01:28:48;;;;;;;41.75;16.13;;;;;;;;;;8402699;28;20055;-79
2022/03/26 01:32:53;;;;;;;35.10;15.40;;;;;;;;;;8411355;28;20044;-78
2022/03/26 01:36:55;;;;;;;39.40;17.50;;;;;;;;;;8398181;28;20053;-79
2022/03/26 01:40:58;;;;;;;34.45;16.20;;;;;;;;;;8404088;28;20097;-78
2022/03/26 01:45:00;;;;;;;38.60;16.05;;;;;;;;;;8405480;28;20051;-79
2022/03/26 01:49:04;;;;;;;;;;;;;;;;;;8411623;28;20051;-79
2022/03/26 01:53:07;;;;;;;33.78;14.70;;;;;;;;;;8415966;28;19978;-79
2022/03/26 01:57:11;;;;;;;35.42;14.82;;;;;;;;;;8406563;28;20127;-79
2022/03/26 02:01:14;;;;;;;37.42;15.55;;;;;;;;;;8404990;28;20048;-79
2022/03/26 02:05:20;;;;;;;33.90;13.75;;;;;;;;;;8414641;28;20044;-78
2022/03/26 02:09:22;;;;;;;35.17;14.95;;;;;;;;;;8422785;28;20496;-79
2022/03/26 02:13:25;;;;;;;30.65;12.70;;;;;;;;;;8401175;28;20063;-79
2022/03/26 02:17:28;;;;;;;46.10;16.05;;;;;;;;;;8409492;28;20049;-79
2022/03/26 02:21:34;;;;;;;32.15;13.82;;;;;;;;;;8403019;28;20492;-79
2022/03/26 02:25:36;;;;;;;42.17;14.95;;;;;;;;;;8415032;28;20051;-79
2022/03/26 02:29:38;;;;;;;;;;;;;;;;;;8399878;28;20060;-79
2022/03/26 02:33:42;;;;;;;34.33;13.55;;;;;;;;;;8411109;28;19943;-77
2022/03/26 02:37:45;;;;;;;44.45;15.13;;;;;;;;;;8411572;28;20117;-78
2022/03/26 02:41:48;;;;;;;31.05;13.52;;;;;;;;;;8416729;28;20059;-78
2022/03/26 02:45:51;;;;;;;40.63;15.55;;;;;;;;;;8417264;28;20044;-78
2022/03/26 02:49:53;;;;;;;36.83;15.80;;;;;;;;;;8407531;28;20101;-80
2022/03/26 02:53:57;;;;;;;41.05;15.13;;;;;;;;;;8412605;28;20048;-79
2022/03/26 02:58:00;;;;;;;34.75;15.15;;;;;;;;;;8413788;28;20041;-80
2022/03/26 03:02:02;;;;;;;32.40;14.45;;;;;;;;;;8398998;28;20400;-78
2022/03/26 03:06:05;;;;;;;37.38;14.45;;;;;;;;;;8401097;28;20399;-80
2022/03/26 03:10:10;;;;;;;36.92;14.20;;;;;;;;;;8395902;28;20097;-79
2022/03/26 03:14:13;;;;;;;30.08;14.85;;;;;;;;;;8407022;28;20128;-79
2022/03/26 03:18:15;;;;;;;39.60;15.52;;;;;;;;;;8407389;28;20049;-78
2022/03/26 03:22:18;;;;;;;39.60;15.13;;;;;;;;;;8431061;28;20478;-78
2022/03/26 03:26:22;;;;;;;39.33;14.70;;;;;;;;;;8422067;28;20037;-79
2022/03/26 03:30:25;;;;;;;33.33;14.93;;;;;;;;;;8425117;28;20139;-82
2022/03/26 03:34:28;;;;;;;37.55;15.75;;;;;;;;;;8433234;28;20556;-81
2022/03/26 03:38:31;;;;;;;39.28;13.60;;;;;;;;;;8416316;28;20464;-79
2022/03/26 03:42:35;;;;;;;34.33;14.65;;;;;;;;;;8413598;28;20098;-82
2022/03/26 03:46:38;;;;;;;33.70;13.18;;;;;;;;;;8417421;28;20040;-80
2022/03/26 03:50:40;;;;;;;;;;;;;;;;;;8405840;28;20049;-78
2022/03/26 03:54:42;;;;;;;30.70;12.73;;;;;;;;;;8405893;28;19927;-80
2022/03/26 03:58:46;;;;;;;27.05;12.50;;;;;;;;;;8415693;28;20051;-79
2022/03/26 04:02:49;;;;;;;33.95;12.73;;;;;;;;;;8416454;28;20040;-79
2022/03/26 04:06:51;;;;;;;33.95;14.50;;;;;;;;;;8414268;28;20071;-78
2022/03/26 04:10:54;;;;;;;36.65;13.00;;;;;;;;;;8417406;28;20051;-78
2022/03/26 04:14:58;;;;;;;36.72;14.98;;;;;;;;;;8408382;28;20048;-78
2022/03/26 04:19:01;;;;;;;51.85;25.20;;;;;;;;;;8411507;28;20087;-77
2022/03/26 04:23:03;;;;;;;38.95;16.17;;;;;;;;;;8399597;28;20048;-85
2022/03/26 04:27:06;;;;;;;28.30;14.55;;;;;;;;;;8414318;28;20044;-80
2022/03/26 04:31:10;;;;;;;32.03;14.38;;;;;;;;;;8406514;28;20048;-79
2022/03/26 04:35:14;;;;;;;38.67;15.38;;;;;;;;;;8398909;28;20045;-79
2022/03/26 04:39:16;;;;;;;33.28;14.23;;;;;;;;;;8404258;28;20511;-79
2022/03/26 04:43:20;;;;;;;74.32;27.77;;;;;;;;;;8399962;28;20466;-80
2022/03/26 04:47:24;;;;;;;83.93;30.75;;;;;;;;;;8400580;28;20408;-80
2022/03/26 04:51:27;;;;;;;53.15;22.33;;;;;;;;;;8399677;28;20040;-79
2022/03/26 04:55:29;;;;;;;73.03;31.80;;;;;;;;;;8394386;28;20048;-80
2022/03/26 04:59:32;;;;;;;78.20;29.17;;;;;;;;;;8396731;28;20414;-81
2022/03/26 05:03:36;;;;;;;100.32;35.35;;;;;;;;;;8397547;28;20047;-80
2022/03/26 05:07:49;;;;;;;73.68;28.75;;;;;;;;;;8397563;28;20135;-79
2022/03/26 05:11:52;;;;;;;51.53;20.02;;;;;;;;;;8415982;28;20555;-81
2022/03/26 05:15:54;;;;;;;48.95;18.20;;;;;;;;;;8422471;28;20052;-80
2022/03/26 05:19:58;;;;;;;60.58;22.88;;;;;;;;;;8411497;28;20048;-81
2022/03/26 05:24:01;;;;;;;61.30;23.00;;;;;;;;;;8400258;28;20044;-80
2022/03/26 05:28:05;;;;;;;60.20;26.60;;;;;;;;;;8411732;28;20045;-82
2022/03/26 05:32:09;;;;;;;63.83;29.52;;;;;;;;;;8411944;28;20500;-81
2022/03/26 05:36:12;;;;;;;75.43;30.13;;;;;;;;;;8400237;28;20841;-81
2022/03/26 05:40:17;;;;;;;50.78;21.52;;;;;;;;;;8411753;28;20056;-80
2022/03/26 05:44:20;;;;;;;39.80;18.17;;;;;;;;;;8410988;28;20133;-82
2022/03/26 05:48:22;;;;;;;50.95;18.73;;;;;;;;;;8418402;28;20039;-81
2022/03/26 05:52:27;;;;;;;43.25;17.88;;;;;;;;;;8399376;28;20523;-81
2022/03/26 05:56:30;;;;;;;51.17;20.25;;;;;;;;;;8421863;28;20056;-80
2022/03/26 06:00:32;;;;;;;50.47;20.67;;;;;;;;;;8423992;28;20101;-82
2022/03/26 06:04:35;;;;;;;50.15;19.77;;;;;;;;;;8410053;28;20044;-80
2022/03/26 06:08:42;;;;;;;42.22;18.63;;;;;;;;;;8418645;28;20458;-80
2022/03/26 06:12:46;;;;;;;46.80;20.35;;;;;;;;;;8412047;28;20557;-81
2022/03/26 06:16:48;;;;;;;50.47;20.85;;;;;;;;;;8415668;28;20060;-81
2022/03/26 06:20:51;;;;;;;48.60;21.00;;;;;;;;;;8420916;28;20510;-80
2022/03/26 06:24:56;;;;;;;39.10;18.83;;;;;;;;;;8408924;28;20389;-80
2022/03/26 06:28:59;;;;;;;52.10;20.02;;;;;;;;;;8396919;28;20048;-81
2022/03/26 06:33:03;;;;;;;40.45;18.13;;;;;;;;;;8396293;28;20076;-80
2022/03/26 06:37:06;;;;;;;37.40;16.60;;;;;;;;;;8402181;28;20048;-81
2022/03/26 06:41:12;;;;;;;36.25;16.83;;;;;;;;;;8411851;28;20482;-93
2022/03/26 06:45:15;;;;;;;40.30;17.88;;;;;;;;;;8428194;28;20032;-82
2022/03/26 06:49:18;;;;;;;36.85;16.08;;;;;;;;;;8412686;28;20040;-81
2022/03/26 06:53:21;;;;;;;30.85;15.90;;;;;;;;;;8417094;28;20131;-80
2022/03/26 06:57:25;;;;;;;38.97;18.10;;;;;;;;;;8414687;28;20076;-82
2022/03/26 07:01:28;;;;;;;36.50;17.55;;;;;;;;;;8412548;28;20047;-83
2022/03/26 07:05:31;;;;;;;34.33;18.23;;;;;;;;;;8406859;28;20040;-83
2022/03/26 07:09:37;;;;;;;35.28;16.80;;;;;;;;;;8414455;28;20081;-82
2022/03/26 07:13:46;;;;;;;32.35;16.25;;;;;;;;;;8412919;28;20064;-83
2022/03/26 07:17:53;;;;;;;32.30;16.73;;;;;;;;;;8412029;28;20055;-83
2022/03/26 07:21:57;;;;;;;35.40;17.13;;;;;;;;;;8402596;28;20400;-83
2022/03/26 07:26:00;;;;;;;33.45;17.27;;;;;;;;;;8409521;28;20516;-83
2022/03/26 07:30:06;;;;;;;31.67;17.05;;;;;;;;;;8401591;28;20130;-83
2022/03/26 07:34:11;;;;;;;30.42;16.30;;;;;;;;;;8413395;28;20040;-84
2022/03/26 07:38:14;;;;;;;32.30;17.38;;;;;;;;;;8410573;28;20446;-85
2022/03/26 07:42:18;;;;;;;32.42;16.17;;;;;;;;;;8417930;28;20055;-84
2022/03/26 07:46:23;;;;;;;41.17;16.73;;;;;;;;;;8408353;28;20446;-89
2022/03/26 07:50:27;;;;;;;30.48;16.42;;;;;;;;;;8393241;28;20049;-94
2022/03/26 07:54:30;;;;;;;30.27;16.10;;;;;;;;;;8414674;28;20554;-91
2022/03/26 07:58:33;;;;;;;30.20;16.30;;;;;;;;;;8419898;28;20044;-89
2022/03/26 08:02:38;;;;;;;29.00;16.00;;;;;;;;;;8392985;28;20045;-93
2022/03/26 08:06:41;;;;;;;30.42;15.27;;;;;;;;;;8416790;28;20036;-91
2022/03/26 08:10:45;;;;;;;27.90;13.60;;;;;;;;;;8422434;28;20048;-89
2022/03/26 08:14:49;;;;;;;25.80;14.02;;;;;;;;;;8387692;28;20389;-92
2022/03/26 08:18:57;;;;;;;27.13;14.60;;;;;;;;;;8414636;28;20037;-90
2022/03/26 08:23:02;;;;;;;27.95;14.95;;;;;;;;;;8395764;28;20131;-84
2022/03/26 08:27:05;;;;;;;29.30;14.77;;;;;;;;;;8413596;28;20477;-85
2022/03/26 08:31:10;;;;;;;25.30;13.00;;;;;;;;;;8412085;28;20067;-86
2022/03/26 08:35:17;;;;;;;27.73;14.55;;;;;;;;;;8399396;28;20047;-85
2022/03/26 08:39:28;;;;;;;24.55;11.10;;;;;;;;;;8400192;28;20387;-83
2022/03/26 08:48:35;;;;;;;18.08;10.18;;;;;;;;;;8413983;28;20048;-83
2022/03/26 08:53:19;;;;;;;24.50;11.15;;;;;;;;;;8405304;28;20040;-82
2022/03/26 08:57:51;;;;;;;23.17;9.15;;;;;;;;;;8402585;28;20055;-87
2022/03/26 09:02:07;;;;;;;17.90;8.05;;;;;;;;;;8405209;28;20037;-86
2022/03/26 09:06:41;;;;;;;18.85;8.63;;;;;;;;;;8407141;28;20487;-86
2022/03/26 09:10:51;;;;;;;25.38;9.02;;;;;;;;;;8411534;28;20060;-91
2022/03/26 09:15:07;;;;;;;22.80;8.00;;;;;;;;;;8400950;28;20124;-90
2022/03/26 09:24:01;;;;;;;22.92;7.88;;;;;;;;;;8405698;28;20044;-93
2022/03/26 09:28:19;;;;;;;19.77;7.78;;;;;;;;;;8407416;28;20089;-89
2022/03/26 09:37:21;;;;;;;18.48;8.60;;;;;;;;;;8407613;28;20051;-88
2022/03/26 09:41:49;;;;;;;25.00;10.45;;;;;;;;;;8407390;28;20046;-90
2022/03/26 09:46:15;;;;;;;15.25;7.20;;;;;;;;;;8385600;28;20412;-86
2022/03/26 09:50:52;;;;;;;27.13;7.45;;;;;;;;;;8395617;28;20051;-93
2022/03/26 09:55:17;;;;;;;25.98;8.43;;;;;;;;;;8415738;28;21027;-92
2022/03/26 10:04:29;;;;;;;21.67;8.05;;;;;;;;;;8404738;28;20040;-89
2022/03/26 10:23:35;;;;;;;13.27;7.97;;;;;;;;;;8402737;28;20040;-90
2022/03/26 10:27:51;;;;;;;29.92;16.23;;;;;;;;;;8390613;28;20059;-90
2022/03/26 10:36:56;;;;;;;18.13;7.20;;;;;;;;;;8398903;28;20483;-90
2022/03/26 10:41:34;;;;;;;19.67;8.68;;;;;;;;;;8420602;28;20067;-90
2022/03/26 10:50:18;;;;;;;27.03;13.87;;;;;;;;;;8401741;28;20045;-91
2022/03/26 10:54:30;;;;;;;30.52;14.55;;;;;;;;;;8392899;28;20058;-93
2022/03/26 11:03:12;;;;;;;20.23;8.32;;;;;;;;;;8356372;28;20068;-90
2022/03/26 11:07:16;;;;;;;26.02;14.57;;;;;;;;;;8654875;22;21246;-83
2022/03/26 11:11:21;;;;;;;24.15;11.55;;;;;;;;;;8341358;28;20041;-80
2022/03/26 11:15:30;;;;;;;21.67;11.35;;;;;;;;;;8352556;28;20045;-81
2022/03/26 11:19:46;;;;;;;19.50;9.07;;;;;;;;;;8339618;28;20053;-81
2022/03/26 11:24:09;;;;;;;15.38;7.75;;;;;;;;;;8340588;28;20400;-80
2022/03/26 11:28:28;;;;;;;17.80;6.78;;;;;;;;;;8362097;28;20045;-82
2022/03/26 11:32:43;;;;;;;15.25;7.18;;;;;;;;;;8341399;28;20537;-80
2022/03/26 11:36:46;;;;;;;14.23;7.22;;;;;;;;;;8343063;28;20394;-81
2022/03/26 11:40:53;;;;;;;29.85;12.43;;;;;;;;;;8339692;28;20053;-82
2022/03/26 11:53:44;;;;;;;21.20;10.13;;;;;;;;;;8343104;28;20040;-83
2022/03/26 11:57:47;;;;;;;17.52;8.70;;;;;;;;;;8347791;28;20462;-84
2022/03/26 12:01:50;;;;;;;14.40;6.10;;;;;;;;;;8343380;28;20087;-82
2022/03/26 12:10:22;;;;;;;12.48;5.43;;;;;;;;;;8376108;28;20527;-83
2022/03/26 12:14:26;;;;;;;16.67;5.38;;;;;;;;;;8371313;28;20045;-82
2022/03/26 12:18:33;;;;;;;12.70;5.55;;;;;;;;;;8369744;28;20056;-82
2022/03/26 12:22:43;;;;;;;16.55;5.75;;;;;;;;;;8396825;28;20041;-82
2022/03/26 12:26:52;;;;;;;14.65;8.77;;;;;;;;;;8379129;28;20059;-81
2022/03/26 12:30:57;;;;;;;9.75;5.38;;;;;;;;;;8374082;28;20060;-81
2022/03/26 12:35:04;;;;;;;17.35;8.23;;;;;;;;;;8380858;28;20053;-81
2022/03/26 12:39:10;;;;;;;11.60;4.80;;;;;;;;;;8384524;28;20090;-81
2022/03/26 12:43:13;;;;;;;18.23;7.57;;;;;;;;;;8376345;28;20056;-82
2022/03/26 12:47:17;;;;;;;15.50;6.93;;;;;;;;;;8392024;28;20040;-83
2022/03/26 12:51:22;;;;;;;16.08;6.72;;;;;;;;;;8392114;28;20519;-81
2022/03/26 12:55:27;;;;;;;16.98;6.90;;;;;;;;;;8377739;28;20435;-83
2022/03/26 12:59:34;;;;;;;12.02;5.38;;;;;;;;;;8368721;28;20128;-83
2022/03/26 13:03:38;;;;;;;12.80;4.90;;;;;;;;;;8375983;28;20044;-86
2022/03/26 13:07:41;;;;;;;12.85;4.95;;;;;;;;;;8369666;28;20480;-82
2022/03/26 13:11:53;;;;;;;15.10;6.22;;;;;;;;;;8373033;28;20075;-82
2022/03/26 13:16:03;;;;;;;11.40;5.95;;;;;;;;;;8366313;28;20048;-81
2022/03/26 13:20:08;;;;;;;15.07;6.93;;;;;;;;;;8383535;28;20552;-83
2022/03/26 13:24:13;;;;;;;15.88;6.22;;;;;;;;;;8374035;28;20131;-82
2022/03/26 13:28:21;;;;;;;13.40;6.00;;;;;;;;;;8381405;28;20033;-81
2022/03/26 13:32:27;;;;;;;17.10;5.78;;;;;;;;;;8376511;28;20055;-81
2022/03/26 13:36:31;;;;;;;21.10;7.95;;;;;;;;;;8373334;28;20565;-82
2022/03/26 13:40:35;;;;;;;35.33;13.70;;;;;;;;;;8388688;28;20068;-82
2022/03/26 13:44:44;;;;;;;24.23;7.03;;;;;;;;;;8374920;28;20043;-82
2022/03/26 13:48:52;;;;;;;32.85;9.07;;;;;;;;;;8389988;28;20128;-82
2022/03/26 13:52:57;;;;;;;22.55;7.57;;;;;;;;;;8369625;28;20041;-82
2022/03/26 13:57:00;;;;;;;21.17;9.00;;;;;;;;;;8374349;28;20040;-84
2022/03/26 14:01:08;;;;;;;20.20;9.18;;;;;;;;;;8376439;28;20056;-82
2022/03/26 14:05:19;;;;;;;24.35;8.75;;;;;;;;;;8381478;28;20045;-82
2022/03/26 14:09:25;;;;;;;21.73;10.90;;;;;;;;;;8378650;28;20618;-82
2022/03/26 14:13:28;;;;;;;19.35;7.80;;;;;;;;;;8377404;28;20090;-82
2022/03/26 14:17:34;;;;;;;29.90;9.32;;;;;;;;;;8366195;28;20048;-82
2022/03/26 14:21:37;;;;;;;20.92;10.23;;;;;;;;;;8383649;28;20059;-81
2022/03/26 14:25:42;;;;;;;25.05;10.77;;;;;;;;;;8377052;28;20041;-81
2022/03/26 14:29:45;;;;;;;19.10;10.27;;;;;;;;;;8363019;28;20132;-84
2022/03/26 14:33:52;;;;;;;24.73;10.15;;;;;;;;;;8375562;28;20041;-82
2022/03/26 14:37:57;;;;;;;27.35;11.02;;;;;;;;;;8373267;28;20467;-82
2022/03/26 14:42:00;;;;;;;18.67;11.35;;;;;;;;;;8378276;28;20040;-81
2022/03/26 14:46:03;;;;;;;16.75;9.63;;;;;;;;;;8371829;28;20045;-81
2022/03/26 14:50:11;;;;;;;16.80;9.00;;;;;;;;;;8376792;28;20033;-82
2022/03/26 14:54:15;;;;;;;18.13;10.93;;;;;;;;;;8369920;28;20041;-81
2022/03/26 14:58:18;;;;;;;26.30;14.55;;;;;;;;;;8376905;28;20045;-81
2022/03/26 15:02:20;;;;;;;35.70;18.63;;;;;;;;;;8373897;28;20382;-90
2022/03/26 15:06:25;;;;;;;29.50;15.35;;;;;;;;;;8369396;28;20135;-81
2022/03/26 15:10:29;;;;;;;28.58;16.23;;;;;;;;;;8386969;28;20457;-85
2022/03/26 15:14:32;;;;;;;51.90;26.17;;;;;;;;;;8381365;28;20040;-80
2022/03/26 15:18:35;;;;;;;58.88;26.13;;;;;;;;;;8378801;28;20071;-81
2022/03/26 15:22:41;;;;;;;87.10;42.72;;;;;;;;;;8382448;28;20365;-81
2022/03/26 15:26:49;;;;;;;50.65;25.15;;;;;;;;;;8384421;28;20063;-80
2022/03/26 15:31:06;;;;;;;;;;;;;;;;;;8381794;28;20041;-80
2022/03/26 15:35:10;;;;;;;58.05;26.80;;;;;;;;;;8361735;28;19920;-80
2022/03/26 15:39:17;;;;;;;73.43;33.60;;;;;;;;;;8387660;28;20402;-79
2022/03/26 15:43:19;;;;;;;57.55;27.08;;;;;;;;;;8384202;28;20593;-79
2022/03/26 15:47:23;;;;;;;133.75;57.25;;;;;;;;;;8379633;28;20119;-79
2022/03/26 15:51:32;;;;;;;63.10;29.35;;;;;;;;;;8381306;28;20040;-80
2022/03/26 15:55:39;;;;;;;76.78;33.15;;;;;;;;;;8375856;28;20160;-80
2022/03/26 15:59:42;;;;;;;94.50;37.45;;;;;;;;;;8372972;28;20049;-80
2022/03/26 16:03:51;;;;;;;87.55;36.78;;;;;;;;;;8375883;28;20036;-84
2022/03/26 16:07:56;;;;;;;70.28;30.52;;;;;;;;;;8378950;28;20079;-82
2022/03/26 16:12:06;;;;;;;63.90;27.58;;;;;;;;;;8379022;28;20041;-80
2022/03/26 16:16:09;;;;;;;51.83;26.35;;;;;;;;;;8380217;28;20040;-81
2022/03/26 16:20:14;;;;;;;152.25;55.25;;;;;;;;;;8384739;28;20049;-80
2022/03/26 16:24:42;;;;;;;55.50;26.50;;;;;;;;;;8359059;28;20083;-81
2022/03/26 16:28:50;;;;;;;69.07;32.03;;;;;;;;;;8382354;28;20447;-81
2022/03/26 16:32:53;;;;;;;78.78;33.67;;;;;;;;;;8364585;28;20041;-81
2022/03/26 16:36:56;;;;;;;110.03;48.53;;;;;;;;;;8364310;28;20045;-81
2022/03/26 16:40:59;;;;;;;53.53;28.73;;;;;;;;;;8377273;28;20499;-81
2022/03/26 16:45:05;;;;;;;28.45;15.40;;;;;;;;;;8370143;28;20052;-80
2022/03/26 16:49:08;;;;;;;35.45;16.88;;;;;;;;;;8383330;28;20135;-81
2022/03/26 16:53:11;;;;;;;26.10;13.88;;;;;;;;;;8374033;28;20055;-82
2022/03/26 16:57:15;;;;;;;38.08;19.10;;;;;;;;;;8381289;28;20048;-81
2022/03/26 17:01:21;;;;;;;51.63;23.95;;;;;;;;;;8380045;28;20455;-81
2022/03/26 17:05:28;;;;;;;124.20;47.28;;;;;;;;;;8374147;28;20052;-82
2022/03/26 17:09:34;;;;;;;33.42;15.63;;;;;;;;;;8367124;28;20062;-82
2022/03/26 17:13:38;;;;;;;44.13;18.75;;;;;;;;;;8378141;28;20115;-81
2022/03/26 17:17:43;;;;;;;29.15;12.27;;;;;;;;;;8381795;28;20110;-81
2022/03/26 17:21:46;;;;;;;26.80;13.00;;;;;;;;;;8372682;28;20147;-81
2022/03/26 17:25:49;;;;;;;21.27;10.60;;;;;;;;;;8371654;28;20540;-83
2022/03/26 17:29:52;;;;;;;27.98;14.90;;;;;;;;;;8379135;28;20056;-82
2022/03/26 17:33:57;;;;;;;25.00;12.57;;;;;;;;;;8370418;28;20041;-81
2022/03/26 17:38:01;;;;;;;27.73;12.80;;;;;;;;;;8375796;28;20602;-81
2022/03/26 17:42:07;;;;;;;26.88;12.02;;;;;;;;;;8373560;28;20110;-81
2022/03/26 17:46:11;;;;;;;33.55;16.48;;;;;;;;;;8368388;28;20057;-82
2022/03/26 17:50:17;;;;;;;22.85;12.20;;;;;;;;;;8362643;28;20113;-82
2022/03/26 17:54:20;;;;;;;35.78;16.48;;;;;;;;;;8376889;28;20110;-82
2022/03/26 17:58:23;;;;;;;26.38;13.23;;;;;;;;;;8368166;28;20112;-81
2022/03/26 18:02:26;;;;;;;25.40;14.18;;;;;;;;;;8372871;28;20110;-81
2022/03/26 18:06:31;;;;;;;24.83;13.38;;;;;;;;;;8371032;28;20044;-82
2022/03/26 18:10:34;;;;;;;30.60;14.70;;;;;;;;;;8363580;28;20053;-81
2022/03/26 18:14:38;;;;;;;30.80;14.45;;;;;;;;;;8366109;28;20056;-81
2022/03/26 18:18:41;;;;;;;33.20;15.75;;;;;;;;;;8374251;28;20153;-82
2022/03/26 18:22:46;;;;;;;49.30;23.67;;;;;;;;;;8366344;28;20045;-81
2022/03/26 18:26:48;;;;;;;52.28;21.42;;;;;;;;;;8376626;28;20052;-81
2022/03/26 18:30:51;;;;;;;36.03;17.67;;;;;;;;;;8366142;28;20037;-81
2022/03/26 18:34:54;;;;;;;37.88;18.45;;;;;;;;;;8373383;28;20044;-82
2022/03/26 18:38:59;;;;;;;36.55;17.75;;;;;;;;;;8374803;28;20103;-82
2022/03/26 18:43:02;;;;;;;36.38;19.67;;;;;;;;;;8380811;28;20064;-81
2022/03/26 18:47:11;;;;;;;44.55;21.65;;;;;;;;;;8370572;28;20053;-81
2022/03/26 18:51:16;;;;;;;38.63;19.55;;;;;;;;;;8370320;28;20061;-82
2022/03/26 18:55:24;;;;;;;34.15;18.23;;;;;;;;;;8375186;28;20048;-82
2022/03/26 18:59:29;;;;;;;33.70;17.27;;;;;;;;;;8371625;28;20107;-82
2022/03/26 19:03:32;;;;;;;44.17;20.95;;;;;;;;;;8379428;28;20118;-81
2022/03/26 19:07:35;;;;;;;49.58;24.55;;;;;;;;;;8381540;28;20067;-82
2022/03/26 19:11:41;;;;;;;47.55;21.80;;;;;;;;;;8379892;28;20041;-82
2022/03/26 19:15:44;;;;;;;43.92;21.92;;;;;;;;;;8369631;28;20037;-82
2022/03/26 19:19:53;;;;;;;45.78;22.42;;;;;;;;;;8372965;28;20167;-82
2022/03/26 19:23:59;;;;;;;42.53;22.02;;;;;;;;;;8379032;28;20492;-81
2022/03/26 19:28:14;;;;;;;43.83;21.42;;;;;;;;;;8378308;28;20044;-81
2022/03/26 19:32:26;;;;;;;38.60;20.60;;;;;;;;;;8376298;28;20064;-81
2022/03/26 19:36:42;;;;;;;38.33;19.95;;;;;;;;;;8373254;28;20044;-82
2022/03/26 19:41:13;;;;;;;37.50;17.77;;;;;;;;;;8380801;28;20052;-83
2022/03/26 19:45:58;;;;;;;40.30;18.00;;;;;;;;;;8379267;28;20072;-83
2022/03/26 19:50:01;;;;;;;39.05;19.45;;;;;;;;;;8367776;28;20443;-89
2022/03/26 19:54:09;;;;;;;37.97;18.25;;;;;;;;;;8372402;28;20411;-80
2022/03/26 19:58:14;;;;;;;33.30;16.67;;;;;;;;;;8373384;28;20067;-82
2022/03/26 20:02:23;;;;;;;52.17;19.08;;;;;;;;;;8372686;28;20497;-82
2022/03/26 20:06:30;;;;;;;35.38;17.55;;;;;;;;;;8373168;28;20400;-82
2022/03/26 20:10:37;;;;;;;30.75;14.63;;;;;;;;;;8373064;28;20044;-82
2022/03/26 20:14:42;;;;;;;36.08;16.20;;;;;;;;;;8375103;28;20094;-82
2022/03/26 20:18:48;;;;;;;37.67;17.55;;;;;;;;;;8375303;28;20527;-83
2022/03/26 20:22:54;;;;;;;32.33;15.45;;;;;;;;;;8378243;28;20448;-82
2022/03/26 20:27:01;;;;;;;30.50;15.75;;;;;;;;;;8377286;28;20037;-80
2022/03/26 20:31:05;;;;;;;28.05;14.40;;;;;;;;;;8377853;28;20495;-82
2022/03/26 20:35:16;;;;;;;32.25;15.55;;;;;;;;;;8377354;28;20074;-83
2022/03/26 20:39:21;;;;;;;25.15;12.23;;;;;;;;;;8377904;28;20056;-81
2022/03/26 20:43:29;;;;;;;23.63;10.77;;;;;;;;;;8369387;28;20045;-82
2022/03/26 20:47:41;;;;;;;17.60;7.60;;;;;;;;;;8372949;28;20041;-82
2022/03/26 20:52:01;;;;;;;17.95;7.82;;;;;;;;;;8379109;28;20102;-82
2022/03/26 20:56:14;;;;;;;16.88;7.05;;;;;;;;;;8373434;28;20079;-81
2022/03/26 21:00:22;;;;;;;16.48;6.72;;;;;;;;;;8358639;28;20056;-82
2022/03/26 21:04:25;;;;;;;14.48;6.00;;;;;;;;;;8368111;28;20083;-83
2022/03/26 21:08:29;;;;;;;11.13;4.93;;;;;;;;;;8373651;28;20053;-81
2022/03/26 21:12:34;;;;;;;9.77;4.25;;;;;;;;;;8381128;28;20047;-82
2022/03/26 21:16:39;;;;;;;13.82;4.72;;;;;;;;;;8381283;28;20048;-82
2022/03/26 21:20:41;;;;;;;11.85;4.60;;;;;;;;;;8383216;28;20102;-81
2022/03/26 21:29:06;;;;;;;8.20;3.05;;;;;;;;;;8371936;28;20045;-83
2022/03/26 21:33:10;;;;;;;8.77;2.75;;;;;;;;;;8376236;28;20041;-80
2022/03/26 21:37:13;;;;;;;7.72;2.78;;;;;;;;;;8377982;28;20054;-82
2022/03/26 21:41:17;;;;;;;11.45;2.30;;;;;;;;;;8376335;28;20090;-83
2022/03/26 21:45:20;;;;;;;6.22;2.30;;;;;;;;;;8372927;28;20045;-81
2022/03/26 21:49:22;;;;;;;6.93;2.78;;;;;;;;;;8383156;28;20045;-81
2022/03/26 21:53:25;;;;;;;8.15;2.97;;;;;;;;;;8362856;28;20045;-80
2022/03/26 21:57:29;;;;;;;6.75;2.45;;;;;;;;;;8366327;28;20041;-81
2022/03/26 22:01:32;;;;;;;12.60;2.58;;;;;;;;;;8373614;28;20400;-81
2022/03/26 22:05:35;;;;;;;9.60;2.40;;;;;;;;;;8374695;28;20044;-83
2022/03/26 22:09:37;;;;;;;5.05;2.00;;;;;;;;;;8372597;28;20409;-82
2022/03/26 22:13:42;;;;;;;6.93;2.20;;;;;;;;;;8377882;28;20044;-84
2022/03/26 22:17:45;;;;;;;8.25;3.13;;;;;;;;;;8363225;28;20060;-83
2022/03/26 22:21:48;;;;;;;8.43;2.58;;;;;;;;;;8371587;28;20052;-82
2022/03/26 22:25:51;;;;;;;6.78;2.70;;;;;;;;;;8378589;28;20051;-83
2022/03/26 22:29:55;;;;;;;5.15;2.67;;;;;;;;;;8368781;28;20067;-84
2022/03/26 22:33:57;;;;;;;7.97;2.63;;;;;;;;;;8367474;28;20101;-81
2022/03/26 22:38:02;;;;;;;5.07;1.73;;;;;;;;;;8364487;28;20051;-82
2022/03/26 22:42:05;;;;;;;6.72;2.40;;;;;;;;;;8375818;28;20044;-81
2022/03/26 22:46:09;;;;;;;6.10;2.50;;;;;;;;;;8369999;28;20048;-81
2022/03/26 22:50:12;;;;;;;8.45;3.17;;;;;;;;;;8370166;28;20077;-85
2022/03/26 22:54:16;;;;;;;10.48;3.40;;;;;;;;;;8373825;28;20049;-81
2022/03/26 22:58:18;;;;;;;8.23;3.15;;;;;;;;;;8371649;28;20412;-85
2022/03/26 23:02:22;;;;;;;8.77;2.63;;;;;;;;;;8366979;28;20051;-83
2022/03/26 23:06:25;;;;;;;6.38;2.38;;;;;;;;;;8367549;28;20459;-82
2022/03/26 23:10:29;;;;;;;8.00;2.60;;;;;;;;;;8367261;28;20068;-81
2022/03/26 23:14:31;;;;;;;8.25;2.40;;;;;;;;;;8367446;28;20041;-82
2022/03/26 23:18:36;;;;;;;9.55;2.75;;;;;;;;;;8364543;28;20041;-82
2022/03/26 23:22:39;;;;;;;9.38;2.85;;;;;;;;;;8378592;28;20391;-81
2022/03/26 23:26:42;;;;;;;8.93;3.25;;;;;;;;;;8393316;28;20041;-81
2022/03/26 23:30:44;;;;;;;9.80;2.53;;;;;;;;;;8384920;28;20040;-82
2022/03/26 23:34:49;;;;;;;16.52;4.43;;;;;;;;;;8384516;28;20044;-81
2022/03/26 23:38:51;;;;;;;11.85;3.22;;;;;;;;;;8375471;28;20094;-80
2022/03/26 23:42:54;;;;;;;17.13;4.85;;;;;;;;;;8382480;28;20048;-82
2022/03/26 23:46:57;;;;;;;10.80;3.83;;;;;;;;;;8370130;28;20404;-83
2022/03/26 23:51:01;;;;;;;13.07;4.25;;;;;;;;;;8378571;28;20041;-82
2022/03/26 23:55:05;;;;;;;15.32;4.80;;;;;;;;;;8375075;28;20041;-80
2022/03/26 23:59:08;;;;;;;17.55;4.30;;;;;;;;;;8386211;28;20040;-79
